Time;durP1;ratioP1;P1;durP2;ratioP2;P2;SDS_P1;SDS_P2;PMS_P1;PMS_P2;Temp;Humidity;BMP_temperature;BMP_pressure;BME280_temperature;BME280_humidity;BME280_pressure;Samples;Min_cycle;Max_cycle;Signal;HPM_P1;HPM_P2
2023/06/14 00:02:30;;;;;;;4.73;3.97;;;;;;;;;;6289207;28;20208;-63
2023/06/14 00:05:33;;;;;;;4.23;3.63;;;;;;;;;;6290524;28;20193;-63
2023/06/14 00:08:34;;;;;;;4.03;3.63;;;;;;;;;;6283533;28;20273;-63
2023/06/14 00:11:35;;;;;;;7.53;4.70;;;;;;;;;;6286973;28;20185;-63
2023/06/14 00:14:36;;;;;;;9.77;4.20;;;;;;;;;;6284915;28;20250;-63
2023/06/14 00:17:38;;;;;;;4.87;3.57;;;;;;;;;;6282243;28;20193;-63
2023/06/14 00:20:41;;;;;;;4.37;3.97;;;;;;;;;;6287632;28;20209;-63
2023/06/14 00:23:42;;;;;;;4.33;3.90;;;;;;;;;;6286031;28;20205;-63
2023/06/14 00:26:43;;;;;;;4.60;3.90;;;;;;;;;;6279162;28;20276;-63
2023/06/14 00:29:45;;;;;;;6.57;3.90;;;;;;;;;;6276863;28;20205;-63
2023/06/14 00:32:46;;;;;;;5.30;3.77;;;;;;;;;;6282469;28;20200;-63
2023/06/14 00:35:48;;;;;;;7.43;4.10;;;;;;;;;;6302715;28;20213;-63
2023/06/14 00:38:49;;;;;;;3.90;3.60;;;;;;;;;;6281134;28;20228;-63
2023/06/14 00:41:50;;;;;;;4.23;3.87;;;;;;;;;;6282322;28;20216;-63
2023/06/14 00:44:51;;;;;;;7.03;4.00;;;;;;;;;;6275667;28;20316;-64
2023/06/14 00:47:55;;;;;;;4.00;3.53;;;;;;;;;;6280726;28;20193;-64
2023/06/14 00:50:56;;;;;;;4.00;3.70;;;;;;;;;;6278179;28;20194;-64
2023/06/14 00:53:57;;;;;;;4.60;3.93;;;;;;;;;;6287749;28;20249;-64
2023/06/14 00:56:58;;;;;;;8.17;4.67;;;;;;;;;;6278539;28;20206;-64
2023/06/14 00:59:59;;;;;;;8.37;3.30;;;;;;;;;;6273427;28;20205;-64
2023/06/14 01:03:01;;;;;;;4.90;3.90;;;;;;;;;;6282329;28;20186;-64
2023/06/14 01:06:26;;;;;;;6.17;4.77;;;;;;;;;;6290662;28;20181;-64
2023/06/14 01:09:30;;;;;;;4.83;3.83;;;;;;;;;;6292788;28;20277;-64
2023/06/14 01:12:47;;;;;;;5.67;3.93;;;;;;;;;;6280310;28;20182;-64
2023/06/14 01:15:52;;;;;;;5.50;4.30;;;;;;;;;;6286335;28;20242;-64
2023/06/14 01:18:56;;;;;;;4.53;4.10;;;;;;;;;;6291785;28;20187;-64
2023/06/14 01:21:57;;;;;;;7.40;4.00;;;;;;;;;;6280051;28;20195;-64
2023/06/14 01:24:58;;;;;;;6.73;3.93;;;;;;;;;;6275475;28;20205;-64
2023/06/14 01:28:01;;;;;;;5.10;4.60;;;;;;;;;;6277043;28;20193;-64
2023/06/14 01:31:04;;;;;;;4.73;4.10;;;;;;;;;;6278811;28;20197;-64
2023/06/14 01:34:05;;;;;;;6.77;4.10;;;;;;;;;;6295022;28;20189;-64
2023/06/14 01:37:07;;;;;;;7.53;4.63;;;;;;;;;;6276405;28;20189;-64
2023/06/14 01:40:10;;;;;;;5.87;4.47;;;;;;;;;;6283891;28;20224;-64
2023/06/14 01:43:12;;;;;;;4.20;3.80;;;;;;;;;;6278033;28;20193;-64
2023/06/14 01:46:13;;;;;;;7.60;4.57;;;;;;;;;;6281268;28;20328;-64
2023/06/14 01:49:14;;;;;;;5.90;5.40;;;;;;;;;;6287041;28;20200;-64
2023/06/14 01:52:16;;;;;;;6.27;4.87;;;;;;;;;;6263479;28;20198;-64
2023/06/14 01:55:17;;;;;;;6.93;5.30;;;;;;;;;;6272860;28;20269;-64
2023/06/14 01:58:18;;;;;;;5.37;4.87;;;;;;;;;;6273335;28;20201;-64
2023/06/14 02:01:21;;;;;;;4.80;4.40;;;;;;;;;;6275815;28;20213;-64
2023/06/14 02:04:22;;;;;;;6.00;4.33;;;;;;;;;;6295750;28;20208;-64
2023/06/14 02:07:24;;;;;;;4.90;4.33;;;;;;;;;;6280289;28;20289;-64
2023/06/14 02:10:25;;;;;;;5.87;4.80;;;;;;;;;;6288543;28;20193;-64
2023/06/14 02:13:26;;;;;;;4.87;4.47;;;;;;;;;;6273716;28;20247;-64
2023/06/14 02:16:29;;;;;;;5.20;4.70;;;;;;;;;;6274373;28;20237;-64
2023/06/14 02:19:30;;;;;;;4.90;3.83;;;;;;;;;;6276935;28;20290;-64
2023/06/14 02:22:31;;;;;;;7.03;4.43;;;;;;;;;;6267189;28;20236;-64
2023/06/14 02:25:32;;;;;;;5.53;5.03;;;;;;;;;;6290674;28;20212;-64
2023/06/14 02:28:35;;;;;;;4.83;4.37;;;;;;;;;;6291747;28;20246;-64
2023/06/14 02:31:36;;;;;;;4.67;4.17;;;;;;;;;;6280582;28;20193;-64
2023/06/14 02:34:41;;;;;;;4.47;4.07;;;;;;;;;;6300504;28;20213;-64
2023/06/14 02:37:42;;;;;;;8.10;4.63;;;;;;;;;;6295494;28;20185;-64
2023/06/14 02:40:43;;;;;;;4.87;4.27;;;;;;;;;;6281322;28;20197;-63
2023/06/14 02:43:44;;;;;;;4.57;4.00;;;;;;;;;;6277573;28;20225;-63
2023/06/14 02:46:46;;;;;;;5.93;5.03;;;;;;;;;;6287180;28;20198;-63
2023/06/14 02:49:47;;;;;;;5.30;4.47;;;;;;;;;;6305051;28;20185;-63
2023/06/14 02:52:48;;;;;;;4.13;3.73;;;;;;;;;;6293787;28;20196;-63
2023/06/14 02:55:49;;;;;;;4.83;4.13;;;;;;;;;;6285643;28;20216;-63
2023/06/14 02:58:50;;;;;;;7.13;3.93;;;;;;;;;;6295579;28;20275;-63
2023/06/14 03:01:51;;;;;;;5.27;4.77;;;;;;;;;;6274131;28;20305;-63
2023/06/14 03:04:52;;;;;;;4.17;3.77;;;;;;;;;;6289905;28;20202;-63
2023/06/14 03:07:53;;;;;;;8.20;4.60;;;;;;;;;;6275013;28;20193;-70
2023/06/14 03:10:57;;;;;;;5.77;3.77;;;;;;;;;;6280440;28;20219;-71
2023/06/14 03:13:59;;;;;;;5.37;4.20;;;;;;;;;;6276944;28;20237;-65
2023/06/14 03:17:00;;;;;;;4.87;4.37;;;;;;;;;;6286360;28;20189;-64
2023/06/14 03:20:01;;;;;;;4.90;4.30;;;;;;;;;;6263009;28;20320;-64
2023/06/14 03:23:03;;;;;;;4.17;3.77;;;;;;;;;;6281028;28;20214;-64
2023/06/14 03:26:05;;;;;;;4.60;4.07;;;;;;;;;;6299888;28;20196;-64
2023/06/14 03:29:06;;;;;;;6.47;3.90;;;;;;;;;;6289648;28;20194;-64
2023/06/14 03:32:07;;;;;;;4.37;3.97;;;;;;;;;;6281057;28;20204;-64
2023/06/14 03:35:08;;;;;;;4.40;3.87;;;;;;;;;;6284185;28;20227;-64
2023/06/14 03:38:09;;;;;;;8.00;4.23;;;;;;;;;;6285982;28;20216;-64
2023/06/14 03:41:10;;;;;;;4.43;3.50;;;;;;;;;;6277488;28;20217;-64
2023/06/14 03:44:11;;;;;;;4.87;4.37;;;;;;;;;;6284191;28;20246;-64
2023/06/14 03:47:12;;;;;;;6.07;4.50;;;;;;;;;;6282619;28;20184;-64
2023/06/14 03:50:15;;;;;;;4.93;4.13;;;;;;;;;;6282412;28;20189;-64
2023/06/14 03:53:16;;;;;;;6.57;4.73;;;;;;;;;;6289405;28;20193;-64
2023/06/14 03:56:17;;;;;;;5.23;4.77;;;;;;;;;;6275298;28;20244;-64
2023/06/14 03:59:18;;;;;;;4.63;4.07;;;;;;;;;;6285538;28;20294;-66
2023/06/14 04:02:19;;;;;;;4.90;4.27;;;;;;;;;;6275193;28;20204;-65
2023/06/14 04:05:21;;;;;;;5.87;3.80;;;;;;;;;;6299407;28;20246;-66
2023/06/14 04:08:22;;;;;;;4.73;4.23;;;;;;;;;;6291130;28;20278;-65
2023/06/14 04:11:25;;;;;;;5.00;3.87;;;;;;;;;;6286991;28;20190;-64
2023/06/14 04:14:26;;;;;;;4.77;4.37;;;;;;;;;;6280939;28;20268;-64
2023/06/14 04:17:27;;;;;;;4.37;3.97;;;;;;;;;;6283712;28;20186;-65
2023/06/14 04:20:28;;;;;;;5.30;4.03;;;;;;;;;;6276656;28;20193;-65
2023/06/14 04:23:30;;;;;;;5.43;4.23;;;;;;;;;;6288549;28;20201;-65
2023/06/14 04:26:33;;;;;;;5.40;3.80;;;;;;;;;;6283424;28;20200;-65
2023/06/14 04:29:34;;;;;;;3.97;3.57;;;;;;;;;;6279409;28;20205;-64
2023/06/14 04:32:38;;;;;;;3.70;3.40;;;;;;;;;;6280187;28;20193;-65
2023/06/14 04:35:40;;;;;;;4.20;3.80;;;;;;;;;;6282852;28;20202;-65
2023/06/14 04:38:44;;;;;;;5.07;4.47;;;;;;;;;;6300822;28;20190;-65
2023/06/14 04:41:46;;;;;;;4.63;4.17;;;;;;;;;;6281820;28;20187;-65
2023/06/14 04:44:48;;;;;;;5.97;4.40;;;;;;;;;;6267318;28;20276;-65
2023/06/14 04:47:51;;;;;;;4.57;3.97;;;;;;;;;;6269619;28;20205;-64
2023/06/14 04:50:52;;;;;;;6.43;4.47;;;;;;;;;;6272435;28;20281;-64
2023/06/14 04:53:56;;;;;;;5.53;4.43;;;;;;;;;;6284017;28;20279;-65
2023/06/14 04:56:58;;;;;;;4.80;4.40;;;;;;;;;;6289854;28;20222;-65
2023/06/14 05:00:04;;;;;;;5.13;4.23;;;;;;;;;;6290379;28;20196;-65
2023/06/14 05:03:05;;;;;;;4.83;4.43;;;;;;;;;;6280894;28;20218;-65
2023/06/14 05:06:06;;;;;;;6.23;4.47;;;;;;;;;;6290734;28;20202;-65
2023/06/14 05:09:07;;;;;;;4.63;4.23;;;;;;;;;;6274876;28;20264;-65
2023/06/14 05:12:09;;;;;;;4.70;4.20;;;;;;;;;;6271873;28;20201;-65
2023/06/14 05:15:10;;;;;;;6.00;4.83;;;;;;;;;;6280662;28;20308;-65
2023/06/14 05:18:13;;;;;;;5.40;4.73;;;;;;;;;;6274930;28;20243;-65
2023/06/14 05:21:18;;;;;;;5.20;4.70;;;;;;;;;;6273653;28;20209;-65
2023/06/14 05:24:19;;;;;;;6.67;4.17;;;;;;;;;;6278129;28;20274;-65
2023/06/14 05:27:20;;;;;;;5.97;4.77;;;;;;;;;;6273802;28;20194;-65
2023/06/14 05:30:21;;;;;;;5.80;4.20;;;;;;;;;;6282083;28;20239;-65
2023/06/14 05:33:22;;;;;;;5.97;4.73;;;;;;;;;;6267435;28;20283;-65
2023/06/14 05:36:24;;;;;;;7.30;4.70;;;;;;;;;;6280008;28;20239;-65
2023/06/14 05:39:25;;;;;;;5.50;4.73;;;;;;;;;;6277692;28;20271;-65
2023/06/14 05:42:26;;;;;;;6.17;4.90;;;;;;;;;;6282189;28;20197;-65
2023/06/14 05:45:27;;;;;;;5.30;4.80;;;;;;;;;;6276821;28;20236;-65
2023/06/14 05:48:28;;;;;;;5.60;4.67;;;;;;;;;;6277220;28;20185;-64
2023/06/14 05:51:29;;;;;;;6.73;5.30;;;;;;;;;;6279002;28;20229;-65
2023/06/14 05:54:31;;;;;;;6.87;4.63;;;;;;;;;;6288593;28;20209;-65
2023/06/14 05:57:32;;;;;;;6.83;4.73;;;;;;;;;;6274170;28;20198;-65
2023/06/14 06:00:33;;;;;;;5.47;4.80;;;;;;;;;;6285449;28;20290;-65
2023/06/14 06:03:34;;;;;;;5.97;5.17;;;;;;;;;;6274622;28;20666;-65
2023/06/14 06:06:35;;;;;;;4.43;4.03;;;;;;;;;;6277882;28;20198;-65
2023/06/14 06:09:36;;;;;;;5.43;4.80;;;;;;;;;;6288359;28;20201;-65
2023/06/14 06:12:37;;;;;;;5.17;4.77;;;;;;;;;;6279451;28;20248;-65
2023/06/14 06:15:39;;;;;;;6.50;4.80;;;;;;;;;;6284507;28;20262;-65
2023/06/14 06:18:40;;;;;;;5.40;4.90;;;;;;;;;;6271888;28;20222;-65
2023/06/14 06:21:41;;;;;;;6.30;5.07;;;;;;;;;;6290824;28;20193;-65
2023/06/14 06:24:42;;;;;;;5.33;4.20;;;;;;;;;;6274572;28;20247;-65
2023/06/14 06:27:43;;;;;;;5.30;4.83;;;;;;;;;;6270936;28;20198;-65
2023/06/14 06:30:44;;;;;;;4.87;3.63;;;;;;;;;;6278512;28;20193;-65
2023/06/14 06:33:45;;;;;;;5.30;4.80;;;;;;;;;;6276646;28;20192;-65
2023/06/14 06:36:46;;;;;;;5.40;4.43;;;;;;;;;;6271261;28;20217;-65
2023/06/14 06:39:47;;;;;;;4.83;4.40;;;;;;;;;;6273548;28;20194;-65
2023/06/14 06:42:49;;;;;;;6.60;5.10;;;;;;;;;;6279077;28;20217;-65
2023/06/14 06:45:50;;;;;;;4.93;4.53;;;;;;;;;;6278133;28;20289;-65
2023/06/14 06:48:52;;;;;;;6.00;4.80;;;;;;;;;;6283665;28;20197;-65
2023/06/14 06:52:03;;;;;;;7.13;4.67;;;;;;;;;;6271513;28;20250;-65
2023/06/14 06:55:04;;;;;;;5.10;4.70;;;;;;;;;;6285795;28;20217;-65
2023/06/14 06:58:06;;;;;;;8.13;5.00;;;;;;;;;;6275693;28;20243;-65
2023/06/14 07:01:09;;;;;;;5.30;4.80;;;;;;;;;;6275224;28;20190;-65
2023/06/14 07:04:10;;;;;;;4.90;4.50;;;;;;;;;;6284431;28;20285;-65
2023/06/14 07:07:11;;;;;;;4.57;4.17;;;;;;;;;;6294095;28;20231;-65
2023/06/14 07:10:12;;;;;;;3.87;3.57;;;;;;;;;;6274802;28;20284;-65
2023/06/14 07:13:13;;;;;;;4.77;4.37;;;;;;;;;;6279947;28;20216;-65
2023/06/14 07:16:15;;;;;;;4.93;4.50;;;;;;;;;;6278876;28;20218;-65
2023/06/14 07:19:16;;;;;;;4.03;3.63;;;;;;;;;;6267740;28;20202;-64
2023/06/14 07:22:17;;;;;;;5.53;3.90;;;;;;;;;;6279653;28;20273;-65
2023/06/14 07:25:19;;;;;;;4.07;3.73;;;;;;;;;;6287192;28;20195;-65
2023/06/14 07:28:21;;;;;;;6.97;4.57;;;;;;;;;;6296851;28;20200;-65
2023/06/14 07:31:22;;;;;;;4.63;4.00;;;;;;;;;;6279090;28;20201;-65
2023/06/14 07:34:23;;;;;;;4.77;4.27;;;;;;;;;;6280894;28;20222;-65
2023/06/14 07:37:24;;;;;;;4.67;4.27;;;;;;;;;;6277106;28;20189;-65
2023/06/14 07:40:25;;;;;;;4.97;4.57;;;;;;;;;;6290517;28;20284;-65
2023/06/14 07:43:26;;;;;;;6.13;4.60;;;;;;;;;;6272998;28;20190;-64
2023/06/14 07:46:27;;;;;;;5.43;4.13;;;;;;;;;;6281682;28;20205;-65
2023/06/14 07:49:28;;;;;;;5.47;4.67;;;;;;;;;;6293248;28;20319;-65
2023/06/14 07:52:29;;;;;;;4.40;4.00;;;;;;;;;;6285292;28;20878;-65
2023/06/14 07:55:32;;;;;;;5.43;3.97;;;;;;;;;;6283993;28;20212;-65
2023/06/14 07:58:33;;;;;;;5.03;4.40;;;;;;;;;;6273265;28;20191;-65
2023/06/14 08:01:35;;;;;;;4.73;4.27;;;;;;;;;;6283423;28;20206;-65
2023/06/14 08:04:36;;;;;;;4.63;4.23;;;;;;;;;;6289933;28;20187;-65
2023/06/14 08:07:38;;;;;;;5.50;4.40;;;;;;;;;;6273646;28;20194;-65
2023/06/14 08:10:39;;;;;;;6.80;4.70;;;;;;;;;;6294599;28;20192;-65
2023/06/14 08:13:40;;;;;;;8.00;5.43;;;;;;;;;;6286223;28;20244;-65
2023/06/14 08:16:41;;;;;;;6.77;5.97;;;;;;;;;;6284538;28;20250;-65
2023/06/14 08:19:42;;;;;;;7.27;5.10;;;;;;;;;;6283800;28;20188;-64
2023/06/14 08:22:46;;;;;;;9.10;6.67;;;;;;;;;;6282950;28;20195;-64
2023/06/14 08:25:47;;;;;;;6.80;6.20;;;;;;;;;;6289614;28;20281;-64
2023/06/14 08:28:48;;;;;;;8.77;6.50;;;;;;;;;;6297361;28;20272;-64
2023/06/14 08:31:49;;;;;;;7.03;6.43;;;;;;;;;;6293794;28;20299;-64
2023/06/14 08:34:50;;;;;;;8.40;7.60;;;;;;;;;;6280061;28;20215;-64
2023/06/14 08:37:51;;;;;;;10.73;7.93;;;;;;;;;;6283852;28;20239;-64
2023/06/14 08:40:53;;;;;;;8.07;7.27;;;;;;;;;;6284598;28;20189;-64
2023/06/14 08:43:54;;;;;;;10.27;9.27;;;;;;;;;;6281108;28;20255;-64
2023/06/14 08:46:59;;;;;;;10.07;8.60;;;;;;;;;;6278587;28;20185;-64
2023/06/14 08:50:00;;;;;;;10.13;8.63;;;;;;;;;;6286354;28;20193;-64
2023/06/14 08:53:02;;;;;;;8.97;7.70;;;;;;;;;;6284457;28;20192;-64
2023/06/14 08:56:04;;;;;;;7.40;6.63;;;;;;;;;;6283794;28;20213;-64
2023/06/14 08:59:08;;;;;;;8.87;7.90;;;;;;;;;;6275786;28;20193;-64
2023/06/14 09:02:14;;;;;;;7.53;6.73;;;;;;;;;;6292218;28;20193;-64
2023/06/14 09:05:18;;;;;;;9.60;7.27;;;;;;;;;;6286399;28;20186;-64
2023/06/14 09:08:22;;;;;;;11.13;8.07;;;;;;;;;;6280333;28;20194;-64
2023/06/14 09:11:23;;;;;;;9.23;7.70;;;;;;;;;;6274893;28;20209;-64
2023/06/14 09:14:25;;;;;;;7.23;6.63;;;;;;;;;;6278928;28;20204;-64
2023/06/14 09:17:26;;;;;;;9.50;7.33;;;;;;;;;;6276359;28;20282;-64
2023/06/14 09:20:27;;;;;;;7.37;6.67;;;;;;;;;;6282042;28;20268;-64
2023/06/14 09:23:28;;;;;;;7.03;6.27;;;;;;;;;;6276673;28;20194;-64
2023/06/14 09:26:29;;;;;;;7.97;6.57;;;;;;;;;;6271832;28;20193;-64
2023/06/14 09:29:31;;;;;;;9.17;5.97;;;;;;;;;;6278373;28;20198;-64
2023/06/14 09:32:36;;;;;;;6.57;5.97;;;;;;;;;;6271984;28;20193;-64
2023/06/14 09:35:37;;;;;;;7.30;6.50;;;;;;;;;;6283782;28;20285;-64
2023/06/14 09:38:40;;;;;;;7.50;6.80;;;;;;;;;;6294916;28;20185;-64
2023/06/14 09:41:43;;;;;;;7.90;7.20;;;;;;;;;;6290349;28;20178;-64
2023/06/14 09:44:44;;;;;;;6.13;5.63;;;;;;;;;;6287937;28;20271;-64
2023/06/14 09:47:46;;;;;;;7.57;6.87;;;;;;;;;;6283739;28;20193;-64
2023/06/14 09:50:48;;;;;;;6.50;5.90;;;;;;;;;;6281255;28;20194;-64
2023/06/14 09:53:49;;;;;;;6.80;5.70;;;;;;;;;;6272757;28;20197;-64
2023/06/14 09:56:51;;;;;;;6.10;5.50;;;;;;;;;;6291119;28;20209;-64
2023/06/14 10:00:00;;;;;;;7.50;5.70;;;;;;;;;;6283463;28;20280;-64
2023/06/14 10:03:04;;;;;;;6.50;5.20;;;;;;;;;;6289491;28;20212;-64
2023/06/14 10:06:07;;;;;;;6.03;5.43;;;;;;;;;;6283043;28;20195;-64
2023/06/14 10:09:09;;;;;;;5.97;5.47;;;;;;;;;;6293600;28;20197;-64
2023/06/14 10:12:10;;;;;;;6.63;5.33;;;;;;;;;;6291881;28;20200;-64
2023/06/14 10:15:16;;;;;;;5.03;4.50;;;;;;;;;;6285268;28;20217;-64
2023/06/14 10:18:29;;;;;;;6.13;5.40;;;;;;;;;;6288270;28;20197;-64
2023/06/14 10:21:33;;;;;;;4.77;4.37;;;;;;;;;;6275673;28;20256;-64
2023/06/14 10:24:38;;;;;;;5.87;5.37;;;;;;;;;;6276495;28;20202;-64
2023/06/14 10:27:40;;;;;;;5.27;4.73;;;;;;;;;;6286854;28;20193;-64
2023/06/14 10:31:02;;;;;;;6.27;4.93;;;;;;;;;;6275008;28;20194;-64
2023/06/14 10:34:03;;;;;;;5.73;5.10;;;;;;;;;;6294122;28;20193;-64
2023/06/14 10:37:06;;;;;;;5.10;4.70;;;;;;;;;;6288249;28;20261;-64
2023/06/14 10:40:08;;;;;;;4.93;4.43;;;;;;;;;;6280572;28;20197;-64
2023/06/14 10:43:25;;;;;;;5.33;4.80;;;;;;;;;;6278066;28;20189;-64
2023/06/14 10:46:29;;;;;;;5.77;5.27;;;;;;;;;;6305965;28;20221;-64
2023/06/14 10:49:44;;;;;;;5.30;4.43;;;;;;;;;;6292425;28;20190;-64
2023/06/14 10:52:45;;;;;;;4.40;4.00;;;;;;;;;;6304374;28;20187;-64
2023/06/14 10:55:46;;;;;;;5.10;4.37;;;;;;;;;;6283331;28;20228;-64
2023/06/14 10:58:47;;;;;;;4.67;4.27;;;;;;;;;;6298717;28;20192;-64
2023/06/14 11:02:21;;;;;;;4.90;4.50;;;;;;;;;;6280521;28;20203;-64
2023/06/14 11:05:29;;;;;;;4.57;4.17;;;;;;;;;;6297451;28;20185;-64
2023/06/14 11:08:48;;;;;;;4.73;4.33;;;;;;;;;;6286970;28;20337;-64
2023/06/14 11:11:51;;;;;;;5.10;4.50;;;;;;;;;;6286368;28;20190;-64
2023/06/14 11:14:52;;;;;;;4.77;4.37;;;;;;;;;;6286600;28;20205;-64
2023/06/14 11:17:54;;;;;;;4.03;3.53;;;;;;;;;;6279142;28;20185;-64
2023/06/14 11:20:55;;;;;;;4.40;4.00;;;;;;;;;;6289967;28;20223;-64
2023/06/14 11:23:56;;;;;;;4.80;4.43;;;;;;;;;;6289221;28;20210;-64
2023/06/14 11:26:57;;;;;;;4.87;4.30;;;;;;;;;;6295932;28;20197;-64
2023/06/14 11:29:58;;;;;;;4.47;4.07;;;;;;;;;;6282464;28;20204;-64
2023/06/14 11:33:00;;;;;;;4.57;3.90;;;;;;;;;;6276447;28;20229;-64
2023/06/14 11:36:05;;;;;;;4.77;4.30;;;;;;;;;;6259537;28;20216;-64
2023/06/14 11:39:07;;;;;;;5.00;4.60;;;;;;;;;;6285550;28;20191;-65
2023/06/14 11:42:08;;;;;;;4.63;4.17;;;;;;;;;;6300400;28;20266;-65
2023/06/14 11:45:10;;;;;;;5.13;3.77;;;;;;;;;;6277270;28;20236;-65
2023/06/14 11:48:11;;;;;;;4.27;3.93;;;;;;;;;;6288143;28;20232;-66
2023/06/14 11:51:12;;;;;;;4.57;4.17;;;;;;;;;;6285619;28;20204;-66
2023/06/14 11:54:13;;;;;;;5.80;4.53;;;;;;;;;;6299905;28;20189;-65
2023/06/14 11:57:14;;;;;;;4.60;4.23;;;;;;;;;;6294092;28;20262;-66
2023/06/14 12:00:16;;;;;;;4.17;3.77;;;;;;;;;;6274608;28;20201;-65
2023/06/14 12:03:17;;;;;;;5.10;3.90;;;;;;;;;;6285686;28;20198;-65
2023/06/14 12:06:28;;;;;;;6.17;3.90;;;;;;;;;;6278114;28;20200;-65
2023/06/14 12:09:29;;;;;;;4.50;4.10;;;;;;;;;;6297137;28;20221;-65
2023/06/14 12:12:31;;;;;;;5.20;4.60;;;;;;;;;;6273522;28;20218;-65
2023/06/14 12:15:32;;;;;;;6.20;4.40;;;;;;;;;;6277791;28;20295;-63
2023/06/14 12:18:37;;;;;;;5.87;4.13;;;;;;;;;;6280743;28;20183;-65
2023/06/14 12:21:41;;;;;;;4.17;3.77;;;;;;;;;;6277685;28;20197;-66
2023/06/14 12:24:46;;;;;;;4.37;3.93;;;;;;;;;;6288255;28;20198;-65
2023/06/14 12:27:47;;;;;;;4.17;3.83;;;;;;;;;;6278739;28;20280;-65
2023/06/14 12:30:49;;;;;;;4.27;3.77;;;;;;;;;;6281933;28;20260;-65
2023/06/14 12:33:50;;;;;;;4.30;3.90;;;;;;;;;;6290846;28;20209;-68
2023/06/14 12:36:51;;;;;;;4.53;3.97;;;;;;;;;;6298428;28;20233;-63
2023/06/14 12:39:52;;;;;;;5.07;4.57;;;;;;;;;;6275622;28;20218;-65
2023/06/14 12:42:53;;;;;;;3.97;3.57;;;;;;;;;;6279203;28;20189;-65
2023/06/14 12:45:54;;;;;;;4.37;4.03;;;;;;;;;;6279274;28;20304;-62
2023/06/14 12:48:55;;;;;;;4.90;4.40;;;;;;;;;;6290544;28;20224;-62
2023/06/14 12:51:56;;;;;;;4.73;3.63;;;;;;;;;;6275505;28;20201;-62
2023/06/14 12:54:57;;;;;;;4.10;3.70;;;;;;;;;;6289291;28;20239;-62
2023/06/14 12:57:59;;;;;;;4.93;3.80;;;;;;;;;;6281902;28;20184;-63
2023/06/14 13:01:00;;;;;;;3.87;3.50;;;;;;;;;;6297939;28;20190;-65
2023/06/14 13:04:01;;;;;;;5.20;3.83;;;;;;;;;;6275144;28;20185;-66
2023/06/14 13:07:02;;;;;;;4.30;3.90;;;;;;;;;;6279052;28;20204;-65
2023/06/14 13:10:03;;;;;;;4.40;4.00;;;;;;;;;;6293578;28;20198;-65
2023/06/14 13:13:04;;;;;;;5.13;3.67;;;;;;;;;;6262395;28;20209;-65
2023/06/14 13:16:05;;;;;;;5.10;4.30;;;;;;;;;;6279529;28;20304;-64
2023/06/14 13:19:06;;;;;;;6.03;4.23;;;;;;;;;;6275424;28;20201;-65
2023/06/14 13:22:08;;;;;;;5.00;3.97;;;;;;;;;;6278651;28;20197;-65
2023/06/14 13:25:09;;;;;;;4.20;3.73;;;;;;;;;;6282526;28;20201;-64
2023/06/14 13:28:10;;;;;;;3.83;3.53;;;;;;;;;;6272237;28;20198;-64
2023/06/14 13:31:11;;;;;;;4.60;3.53;;;;;;;;;;6262948;28;20218;-64
2023/06/14 13:34:12;;;;;;;6.03;4.20;;;;;;;;;;6291274;28;20204;-65
2023/06/14 13:37:14;;;;;;;4.87;3.60;;;;;;;;;;6281325;28;20232;-64
2023/06/14 13:40:15;;;;;;;4.37;3.80;;;;;;;;;;6275159;28;20190;-65
2023/06/14 13:43:16;;;;;;;3.83;3.47;;;;;;;;;;6275024;28;20182;-65
2023/06/14 13:46:17;;;;;;;4.80;4.40;;;;;;;;;;6275135;28;20241;-65
2023/06/14 13:49:18;;;;;;;4.23;3.83;;;;;;;;;;6277695;28;20197;-64
2023/06/14 13:52:19;;;;;;;4.77;3.67;;;;;;;;;;6283336;28;20200;-65
2023/06/14 13:55:21;;;;;;;4.33;3.40;;;;;;;;;;6284557;28;20220;-65
2023/06/14 13:58:23;;;;;;;4.30;3.90;;;;;;;;;;6280283;28;20204;-65
2023/06/14 14:01:25;;;;;;;4.10;3.40;;;;;;;;;;6287706;28;20185;-65
2023/06/14 14:04:26;;;;;;;4.80;4.00;;;;;;;;;;6273862;28;20197;-65
2023/06/14 14:07:28;;;;;;;4.77;4.07;;;;;;;;;;6292314;28;20290;-65
2023/06/14 14:10:29;;;;;;;4.10;3.80;;;;;;;;;;6288728;28;20181;-65
2023/06/14 14:13:30;;;;;;;4.03;3.63;;;;;;;;;;6271250;28;20195;-66
2023/06/14 14:16:31;;;;;;;7.10;3.90;;;;;;;;;;6272520;28;20220;-65
2023/06/14 14:19:32;;;;;;;3.97;3.67;;;;;;;;;;6280956;28;20221;-65
2023/06/14 14:22:33;;;;;;;4.67;3.90;;;;;;;;;;6291640;28;20185;-65
2023/06/14 14:25:35;;;;;;;4.23;3.83;;;;;;;;;;6290608;28;20246;-65
2023/06/14 14:28:36;;;;;;;4.43;4.03;;;;;;;;;;6287945;28;20198;-65
2023/06/14 14:31:37;;;;;;;4.03;3.60;;;;;;;;;;6291869;28;20219;-64
2023/06/14 14:34:38;;;;;;;5.33;4.10;;;;;;;;;;6292747;28;20224;-65
2023/06/14 14:37:39;;;;;;;5.60;4.67;;;;;;;;;;6281036;28;20250;-65
2023/06/14 14:40:40;;;;;;;5.73;3.73;;;;;;;;;;6293205;28;20192;-67
2023/06/14 14:43:41;;;;;;;4.40;3.97;;;;;;;;;;6284707;28;20196;-64
2023/06/14 14:46:43;;;;;;;4.37;3.97;;;;;;;;;;6286012;28;20284;-64
2023/06/14 14:49:44;;;;;;;5.43;3.83;;;;;;;;;;6283168;28;20198;-64
2023/06/14 14:52:45;;;;;;;5.00;4.07;;;;;;;;;;6287431;28;20192;-64
2023/06/14 14:55:46;;;;;;;4.60;4.10;;;;;;;;;;6272868;28;20213;-64
2023/06/14 14:58:48;;;;;;;4.47;4.07;;;;;;;;;;6279493;28;20200;-64
2023/06/14 15:01:50;;;;;;;5.30;4.80;;;;;;;;;;6280947;28;20190;-64
2023/06/14 15:04:51;;;;;;;4.30;3.90;;;;;;;;;;6273397;28;20202;-64
2023/06/14 15:07:52;;;;;;;4.73;4.10;;;;;;;;;;6285124;28;20197;-64
2023/06/14 15:10:53;;;;;;;5.27;4.73;;;;;;;;;;6261869;28;20198;-64
2023/06/14 15:13:54;;;;;;;4.80;4.30;;;;;;;;;;6282611;28;20195;-64
2023/06/14 15:16:57;;;;;;;4.37;4.07;;;;;;;;;;6270615;28;20213;-64
2023/06/14 15:19:58;;;;;;;4.97;4.40;;;;;;;;;;6292918;28;20193;-65
2023/06/14 15:22:59;;;;;;;4.73;4.33;;;;;;;;;;6293335;28;20190;-64
2023/06/14 15:26:00;;;;;;;4.90;4.07;;;;;;;;;;6284203;28;20213;-64
2023/06/14 15:29:02;;;;;;;5.10;4.60;;;;;;;;;;6283187;28;20194;-64
2023/06/14 15:32:03;;;;;;;4.83;4.30;;;;;;;;;;6279214;28;20196;-64
2023/06/14 15:35:04;;;;;;;4.60;3.90;;;;;;;;;;6291712;28;20286;-64
2023/06/14 15:38:05;;;;;;;4.40;3.93;;;;;;;;;;6278750;28;20189;-64
2023/06/14 15:41:07;;;;;;;4.63;4.20;;;;;;;;;;6265069;28;20231;-64
2023/06/14 15:44:09;;;;;;;5.27;3.90;;;;;;;;;;6291230;28;20241;-64
2023/06/14 15:47:10;;;;;;;5.50;5.00;;;;;;;;;;6274877;28;20281;-64
2023/06/14 15:50:11;;;;;;;4.57;4.17;;;;;;;;;;6290758;28;20350;-64
2023/06/14 15:53:12;;;;;;;4.50;4.13;;;;;;;;;;6298173;28;20203;-64
2023/06/14 15:56:13;;;;;;;4.97;4.47;;;;;;;;;;6282775;28;20213;-64
2023/06/14 15:59:14;;;;;;;5.37;4.10;;;;;;;;;;6283252;28;20188;-64
2023/06/14 16:02:15;;;;;;;5.00;4.20;;;;;;;;;;6278475;28;20217;-65
2023/06/14 16:05:17;;;;;;;4.43;4.03;;;;;;;;;;6282531;28;20193;-65
2023/06/14 16:08:18;;;;;;;5.00;4.00;;;;;;;;;;6282492;28;20189;-65
2023/06/14 16:11:19;;;;;;;4.53;4.13;;;;;;;;;;6280769;28;20193;-65
2023/06/14 16:14:20;;;;;;;5.03;4.20;;;;;;;;;;6274732;28;20208;-65
2023/06/14 16:17:21;;;;;;;4.40;4.00;;;;;;;;;;6283825;28;20230;-65
2023/06/14 16:20:22;;;;;;;4.60;4.20;;;;;;;;;;6277461;28;20378;-65
2023/06/14 16:23:23;;;;;;;5.93;4.17;;;;;;;;;;6281824;28;20197;-65
2023/06/14 16:26:25;;;;;;;5.70;4.10;;;;;;;;;;6284310;28;20201;-65
2023/06/14 16:29:26;;;;;;;4.47;4.07;;;;;;;;;;6281750;28;20193;-65
2023/06/14 16:32:28;;;;;;;4.03;3.73;;;;;;;;;;6275841;28;20190;-65
2023/06/14 16:35:31;;;;;;;6.93;4.10;;;;;;;;;;6276801;28;20206;-65
2023/06/14 16:38:32;;;;;;;4.37;3.97;;;;;;;;;;6272333;28;20193;-64
2023/06/14 16:41:33;;;;;;;6.80;4.13;;;;;;;;;;6272778;28;20185;-65
2023/06/14 16:44:34;;;;;;;5.87;4.53;;;;;;;;;;6283001;28;20228;-64
2023/06/14 16:47:35;;;;;;;5.33;4.80;;;;;;;;;;6273747;28;20186;-64
2023/06/14 16:50:36;;;;;;;5.10;4.60;;;;;;;;;;6278952;28;20245;-66
2023/06/14 16:53:37;;;;;;;4.37;4.07;;;;;;;;;;6283453;28;20302;-64
2023/06/14 16:56:38;;;;;;;4.57;4.17;;;;;;;;;;6274689;28;20205;-64
2023/06/14 16:59:39;;;;;;;7.07;4.43;;;;;;;;;;6283896;28;20188;-64
2023/06/14 17:02:40;;;;;;;4.97;4.53;;;;;;;;;;6272764;28;20192;-65
2023/06/14 17:05:54;;;;;;;5.60;4.87;;;;;;;;;;6274160;28;20285;-65
2023/06/14 17:08:55;;;;;;;7.83;4.23;;;;;;;;;;6288456;28;20222;-65
2023/06/14 17:11:56;;;;;;;5.10;4.60;;;;;;;;;;6289422;28;20299;-65
2023/06/14 17:14:57;;;;;;;4.80;4.37;;;;;;;;;;6270626;28;20305;-64
2023/06/14 17:17:58;;;;;;;4.47;4.00;;;;;;;;;;6266220;28;20219;-65
2023/06/14 17:20:59;;;;;;;4.57;3.97;;;;;;;;;;6294943;28;20284;-65
2023/06/14 17:24:01;;;;;;;5.03;4.30;;;;;;;;;;6294183;28;20194;-64
2023/06/14 17:27:02;;;;;;;6.67;4.37;;;;;;;;;;6282256;28;20298;-65
2023/06/14 17:30:03;;;;;;;4.50;4.10;;;;;;;;;;6283996;28;20202;-65
2023/06/14 17:33:11;;;;;;;4.67;4.27;;;;;;;;;;6277568;28;20194;-64
2023/06/14 17:36:12;;;;;;;4.80;4.30;;;;;;;;;;6275284;28;20297;-66
2023/06/14 17:39:13;;;;;;;5.00;4.50;;;;;;;;;;6288935;28;20189;-66
2023/06/14 17:42:14;;;;;;;6.37;4.20;;;;;;;;;;6265040;28;20239;-65
2023/06/14 17:45:15;;;;;;;4.67;4.27;;;;;;;;;;6280745;28;20241;-65
2023/06/14 17:48:17;;;;;;;4.97;4.47;;;;;;;;;;6272403;28;20199;-66
2023/06/14 17:51:19;;;;;;;6.13;5.53;;;;;;;;;;6275923;28;20204;-66
2023/06/14 17:54:20;;;;;;;6.17;5.27;;;;;;;;;;6268222;28;20197;-66
2023/06/14 17:57:21;;;;;;;8.37;4.83;;;;;;;;;;6299326;28;20212;-68
2023/06/14 18:00:22;;;;;;;5.27;4.13;;;;;;;;;;6279375;28;20193;-69
2023/06/14 18:03:24;;;;;;;5.43;4.93;;;;;;;;;;6275819;28;20187;-71
2023/06/14 18:06:25;;;;;;;5.40;4.90;;;;;;;;;;6273088;28;20198;-70
2023/06/14 18:09:26;;;;;;;4.97;4.17;;;;;;;;;;6283465;28;20196;-64
2023/06/14 18:12:27;;;;;;;5.80;4.70;;;;;;;;;;6294927;28;20200;-69